sensor_id;sensor_type;location;lat;lon;timestamp;P1;durP1;ratioP1;P2;durP2;ratioP2
65096;SDS011;51686;46.758;4.356;2023-12-07T00:00:14;14.02;;;7.35;;
65096;SDS011;51686;46.758;4.356;2023-12-07T00:03:02;13.98;;;7.88;;
65096;SDS011;51686;46.758;4.356;2023-12-07T00:05:49;14.40;;;7.78;;
65096;SDS011;51686;46.758;4.356;2023-12-07T00:08:36;14.00;;;7.07;;
65096;SDS011;51686;46.758;4.356;2023-12-07T00:11:22;12.63;;;7.00;;
65096;SDS011;51686;46.758;4.356;2023-12-07T00:14:09;13.73;;;7.70;;
65096;SDS011;51686;46.758;4.356;2023-12-07T00:16:56;14.02;;;7.72;;
65096;SDS011;51686;46.758;4.356;2023-12-07T00:19:43;14.32;;;7.45;;
65096;SDS011;51686;46.758;4.356;2023-12-07T00:22:30;12.98;;;7.40;;
65096;SDS011;51686;46.758;4.356;2023-12-07T00:25:17;12.93;;;7.30;;
65096;SDS011;51686;46.758;4.356;2023-12-07T00:28:04;14.27;;;7.75;;
65096;SDS011;51686;46.758;4.356;2023-12-07T00:30:52;13.68;;;7.78;;
65096;SDS011;51686;46.758;4.356;2023-12-07T00:33:39;13.60;;;7.22;;
65096;SDS011;51686;46.758;4.356;2023-12-07T00:36:26;14.00;;;7.70;;
65096;SDS011;51686;46.758;4.356;2023-12-07T00:39:13;13.80;;;7.78;;
65096;SDS011;51686;46.758;4.356;2023-12-07T00:41:59;13.27;;;7.30;;
65096;SDS011;51686;46.758;4.356;2023-12-07T00:44:46;14.27;;;8.07;;
65096;SDS011;51686;46.758;4.356;2023-12-07T00:47:33;14.25;;;8.02;;
65096;SDS011;51686;46.758;4.356;2023-12-07T00:50:20;14.43;;;7.97;;
65096;SDS011;51686;46.758;4.356;2023-12-07T00:53:07;13.65;;;7.30;;
65096;SDS011;51686;46.758;4.356;2023-12-07T00:55:55;13.35;;;7.18;;
65096;SDS011;51686;46.758;4.356;2023-12-07T00:58:42;14.13;;;7.53;;
65096;SDS011;51686;46.758;4.356;2023-12-07T01:01:29;13.95;;;7.80;;
65096;SDS011;51686;46.758;4.356;2023-12-07T01:04:16;13.25;;;7.70;;
65096;SDS011;51686;46.758;4.356;2023-12-07T01:07:04;13.70;;;7.70;;
65096;SDS011;51686;46.758;4.356;2023-12-07T01:09:51;14.18;;;7.88;;
65096;SDS011;51686;46.758;4.356;2023-12-07T01:12:38;13.85;;;7.43;;
65096;SDS011;51686;46.758;4.356;2023-12-07T01:15:25;14.77;;;8.15;;
65096;SDS011;51686;46.758;4.356;2023-12-07T01:18:12;14.20;;;7.75;;
65096;SDS011;51686;46.758;4.356;2023-12-07T01:20:59;14.60;;;8.13;;
65096;SDS011;51686;46.758;4.356;2023-12-07T01:23:46;14.55;;;7.68;;
65096;SDS011;51686;46.758;4.356;2023-12-07T01:26:36;14.23;;;7.60;;
65096;SDS011;51686;46.758;4.356;2023-12-07T01:29:23;13.05;;;7.38;;
65096;SDS011;51686;46.758;4.356;2023-12-07T01:32:10;12.85;;;6.72;;
65096;SDS011;51686;46.758;4.356;2023-12-07T01:34:57;13.70;;;7.32;;
65096;SDS011;51686;46.758;4.356;2023-12-07T01:37:44;13.95;;;7.60;;
65096;SDS011;51686;46.758;4.356;2023-12-07T01:40:31;12.73;;;7.10;;
65096;SDS011;51686;46.758;4.356;2023-12-07T01:43:18;14.23;;;7.55;;
65096;SDS011;51686;46.758;4.356;2023-12-07T01:46:07;14.02;;;7.80;;
65096;SDS011;51686;46.758;4.356;2023-12-07T01:48:54;14.13;;;7.90;;
65096;SDS011;51686;46.758;4.356;2023-12-07T01:51:41;14.85;;;8.27;;
65096;SDS011;51686;46.758;4.356;2023-12-07T01:54:29;12.93;;;7.28;;
65096;SDS011;51686;46.758;4.356;2023-12-07T01:57:16;13.70;;;7.45;;
65096;SDS011;51686;46.758;4.356;2023-12-07T02:00:03;14.27;;;7.50;;
65096;SDS011;51686;46.758;4.356;2023-12-07T02:02:50;13.65;;;7.20;;
65096;SDS011;51686;46.758;4.356;2023-12-07T02:05:39;13.43;;;7.50;;
65096;SDS011;51686;46.758;4.356;2023-12-07T02:08:29;13.43;;;7.15;;
65096;SDS011;51686;46.758;4.356;2023-12-07T02:11:15;14.35;;;7.88;;
65096;SDS011;51686;46.758;4.356;2023-12-07T02:14:02;14.63;;;8.20;;
65096;SDS011;51686;46.758;4.356;2023-12-07T02:17:07;14.30;;;7.80;;
65096;SDS011;51686;46.758;4.356;2023-12-07T02:20:03;14.25;;;7.63;;
65096;SDS011;51686;46.758;4.356;2023-12-07T02:23:00;14.05;;;7.70;;
65096;SDS011;51686;46.758;4.356;2023-12-07T02:25:52;12.88;;;7.20;;
65096;SDS011;51686;46.758;4.356;2023-12-07T02:28:40;14.13;;;7.32;;
65096;SDS011;51686;46.758;4.356;2023-12-07T02:31:27;13.65;;;7.70;;
65096;SDS011;51686;46.758;4.356;2023-12-07T02:34:14;15.15;;;7.95;;
65096;SDS011;51686;46.758;4.356;2023-12-07T02:37:01;13.05;;;7.63;;
65096;SDS011;51686;46.758;4.356;2023-12-07T02:39:49;13.40;;;7.25;;
65096;SDS011;51686;46.758;4.356;2023-12-07T02:42:38;13.65;;;7.28;;
65096;SDS011;51686;46.758;4.356;2023-12-07T02:45:27;13.98;;;7.53;;
65096;SDS011;51686;46.758;4.356;2023-12-07T02:48:14;14.43;;;8.00;;
65096;SDS011;51686;46.758;4.356;2023-12-07T02:51:01;14.30;;;7.90;;
65096;SDS011;51686;46.758;4.356;2023-12-07T02:53:48;14.20;;;7.35;;
65096;SDS011;51686;46.758;4.356;2023-12-07T02:56:35;13.52;;;7.55;;
65096;SDS011;51686;46.758;4.356;2023-12-07T02:59:22;14.77;;;7.82;;
65096;SDS011;51686;46.758;4.356;2023-12-07T03:02:08;14.65;;;7.72;;
65096;SDS011;51686;46.758;4.356;2023-12-07T03:04:55;14.65;;;8.00;;
65096;SDS011;51686;46.758;4.356;2023-12-07T03:07:42;13.30;;;7.38;;
65096;SDS011;51686;46.758;4.356;2023-12-07T03:10:29;13.98;;;7.15;;
65096;SDS011;51686;46.758;4.356;2023-12-07T03:13:16;14.52;;;7.68;;
65096;SDS011;51686;46.758;4.356;2023-12-07T03:16:06;14.77;;;7.97;;
65096;SDS011;51686;46.758;4.356;2023-12-07T03:18:54;14.02;;;8.18;;
65096;SDS011;51686;46.758;4.356;2023-12-07T03:21:41;13.68;;;7.57;;
65096;SDS011;51686;46.758;4.356;2023-12-07T03:24:29;14.50;;;8.07;;
65096;SDS011;51686;46.758;4.356;2023-12-07T03:27:16;15.02;;;7.97;;
65096;SDS011;51686;46.758;4.356;2023-12-07T03:30:04;14.10;;;7.80;;
65096;SDS011;51686;46.758;4.356;2023-12-07T03:32:51;13.90;;;7.70;;
65096;SDS011;51686;46.758;4.356;2023-12-07T03:35:39;14.73;;;7.82;;
65096;SDS011;51686;46.758;4.356;2023-12-07T03:38:26;15.68;;;8.23;;
65096;SDS011;51686;46.758;4.356;2023-12-07T03:41:12;15.43;;;8.27;;
65096;SDS011;51686;46.758;4.356;2023-12-07T03:43:59;14.48;;;7.78;;
65096;SDS011;51686;46.758;4.356;2023-12-07T03:46:46;15.45;;;8.30;;
65096;SDS011;51686;46.758;4.356;2023-12-07T03:49:34;14.23;;;7.85;;
65096;SDS011;51686;46.758;4.356;2023-12-07T03:52:22;15.27;;;8.32;;
65096;SDS011;51686;46.758;4.356;2023-12-07T03:55:09;14.55;;;8.35;;
65096;SDS011;51686;46.758;4.356;2023-12-07T03:57:58;16.53;;;8.40;;
65096;SDS011;51686;46.758;4.356;2023-12-07T04:00:45;15.07;;;8.43;;
65096;SDS011;51686;46.758;4.356;2023-12-07T04:03:32;13.88;;;7.47;;
65096;SDS011;51686;46.758;4.356;2023-12-07T04:06:18;14.98;;;7.88;;
65096;SDS011;51686;46.758;4.356;2023-12-07T04:09:07;13.60;;;7.80;;
65096;SDS011;51686;46.758;4.356;2023-12-07T04:11:54;14.15;;;8.02;;
65096;SDS011;51686;46.758;4.356;2023-12-07T04:14:41;14.27;;;8.23;;
65096;SDS011;51686;46.758;4.356;2023-12-07T04:17:27;15.00;;;8.63;;
65096;SDS011;51686;46.758;4.356;2023-12-07T04:20:15;14.90;;;8.15;;
65096;SDS011;51686;46.758;4.356;2023-12-07T04:23:01;14.80;;;7.88;;
65096;SDS011;51686;46.758;4.356;2023-12-07T04:25:48;14.95;;;8.23;;
65096;SDS011;51686;46.758;4.356;2023-12-07T04:28:35;14.20;;;7.88;;
65096;SDS011;51686;46.758;4.356;2023-12-07T04:31:22;14.80;;;8.05;;
65096;SDS011;51686;46.758;4.356;2023-12-07T04:34:09;14.20;;;8.07;;
65096;SDS011;51686;46.758;4.356;2023-12-07T04:36:56;14.15;;;8.10;;
65096;SDS011;51686;46.758;4.356;2023-12-07T04:39:43;13.57;;;7.78;;
65096;SDS011;51686;46.758;4.356;2023-12-07T04:42:30;14.88;;;8.07;;
65096;SDS011;51686;46.758;4.356;2023-12-07T04:45:17;14.23;;;8.20;;
65096;SDS011;51686;46.758;4.356;2023-12-07T04:48:04;14.70;;;7.60;;
65096;SDS011;51686;46.758;4.356;2023-12-07T04:50:52;14.43;;;7.53;;
65096;SDS011;51686;46.758;4.356;2023-12-07T04:53:39;13.65;;;7.43;;
65096;SDS011;51686;46.758;4.356;2023-12-07T04:56:26;13.95;;;8.00;;
65096;SDS011;51686;46.758;4.356;2023-12-07T04:59:13;14.65;;;8.05;;
65096;SDS011;51686;46.758;4.356;2023-12-07T05:02:00;15.57;;;8.18;;
65096;SDS011;51686;46.758;4.356;2023-12-07T05:04:47;15.57;;;8.30;;
65096;SDS011;51686;46.758;4.356;2023-12-07T05:07:34;14.43;;;7.65;;
65096;SDS011;51686;46.758;4.356;2023-12-07T05:10:21;14.90;;;7.63;;
65096;SDS011;51686;46.758;4.356;2023-12-07T05:13:08;14.90;;;7.90;;
65096;SDS011;51686;46.758;4.356;2023-12-07T05:15:55;14.93;;;7.85;;
65096;SDS011;51686;46.758;4.356;2023-12-07T05:18:41;15.10;;;8.40;;
65096;SDS011;51686;46.758;4.356;2023-12-07T05:21:28;14.77;;;8.18;;
65096;SDS011;51686;46.758;4.356;2023-12-07T05:24:15;14.45;;;7.97;;
65096;SDS011;51686;46.758;4.356;2023-12-07T05:27:02;14.52;;;7.88;;
65096;SDS011;51686;46.758;4.356;2023-12-07T05:29:50;14.20;;;7.95;;
65096;SDS011;51686;46.758;4.356;2023-12-07T05:32:37;13.77;;;7.82;;
65096;SDS011;51686;46.758;4.356;2023-12-07T05:35:24;15.32;;;7.93;;
65096;SDS011;51686;46.758;4.356;2023-12-07T05:38:11;15.07;;;8.20;;
65096;SDS011;51686;46.758;4.356;2023-12-07T05:40:58;14.02;;;7.78;;
65096;SDS011;51686;46.758;4.356;2023-12-07T05:43:45;14.88;;;8.45;;
65096;SDS011;51686;46.758;4.356;2023-12-07T05:46:32;14.93;;;8.27;;
65096;SDS011;51686;46.758;4.356;2023-12-07T05:49:19;15.57;;;8.25;;
65096;SDS011;51686;46.758;4.356;2023-12-07T05:52:09;13.73;;;7.97;;
65096;SDS011;51686;46.758;4.356;2023-12-07T05:54:55;16.15;;;8.57;;
65096;SDS011;51686;46.758;4.356;2023-12-07T05:57:44;15.30;;;7.97;;
65096;SDS011;51686;46.758;4.356;2023-12-07T06:00:32;14.50;;;7.68;;
65096;SDS011;51686;46.758;4.356;2023-12-07T06:03:19;14.27;;;7.60;;
65096;SDS011;51686;46.758;4.356;2023-12-07T06:06:06;15.35;;;8.15;;
65096;SDS011;51686;46.758;4.356;2023-12-07T06:08:53;17.00;;;9.05;;
65096;SDS011;51686;46.758;4.356;2023-12-07T06:11:40;14.07;;;7.53;;
65096;SDS011;51686;46.758;4.356;2023-12-07T06:14:27;15.48;;;8.48;;
65096;SDS011;51686;46.758;4.356;2023-12-07T06:17:14;14.73;;;7.90;;
65096;SDS011;51686;46.758;4.356;2023-12-07T06:20:01;14.55;;;7.60;;
65096;SDS011;51686;46.758;4.356;2023-12-07T06:22:49;16.50;;;9.23;;
65096;SDS011;51686;46.758;4.356;2023-12-07T06:25:36;15.48;;;7.90;;
65096;SDS011;51686;46.758;4.356;2023-12-07T06:28:23;14.52;;;7.75;;
65096;SDS011;51686;46.758;4.356;2023-12-07T06:34:07;16.52;;;8.50;;
65096;SDS011;51686;46.758;4.356;2023-12-07T06:36:54;15.68;;;8.35;;
65096;SDS011;51686;46.758;4.356;2023-12-07T06:39:41;16.13;;;8.25;;
65096;SDS011;51686;46.758;4.356;2023-12-07T06:42:28;15.05;;;7.88;;
65096;SDS011;51686;46.758;4.356;2023-12-07T06:45:15;16.67;;;9.80;;
65096;SDS011;51686;46.758;4.356;2023-12-07T06:48:03;17.92;;;9.88;;
65096;SDS011;51686;46.758;4.356;2023-12-07T06:50:50;17.30;;;9.27;;
65096;SDS011;51686;46.758;4.356;2023-12-07T06:53:37;18.92;;;9.13;;
65096;SDS011;51686;46.758;4.356;2023-12-07T06:56:24;17.13;;;9.55;;
65096;SDS011;51686;46.758;4.356;2023-12-07T06:59:11;17.40;;;9.77;;
65096;SDS011;51686;46.758;4.356;2023-12-07T07:01:59;18.00;;;9.63;;
65096;SDS011;51686;46.758;4.356;2023-12-07T07:04:46;16.58;;;9.63;;
65096;SDS011;51686;46.758;4.356;2023-12-07T07:07:35;19.23;;;9.82;;
65096;SDS011;51686;46.758;4.356;2023-12-07T07:10:22;17.58;;;9.88;;
65096;SDS011;51686;46.758;4.356;2023-12-07T07:13:09;16.17;;;9.13;;
65096;SDS011;51686;46.758;4.356;2023-12-07T07:15:56;17.75;;;9.63;;
65096;SDS011;51686;46.758;4.356;2023-12-07T07:18:43;18.52;;;9.88;;
65096;SDS011;51686;46.758;4.356;2023-12-07T07:21:30;15.70;;;9.32;;
65096;SDS011;51686;46.758;4.356;2023-12-07T07:24:17;16.10;;;9.32;;
65096;SDS011;51686;46.758;4.356;2023-12-07T07:27:04;18.98;;;9.50;;
65096;SDS011;51686;46.758;4.356;2023-12-07T07:29:51;16.65;;;9.32;;
65096;SDS011;51686;46.758;4.356;2023-12-07T07:32:38;15.80;;;9.60;;
65096;SDS011;51686;46.758;4.356;2023-12-07T07:35:25;18.35;;;10.18;;
65096;SDS011;51686;46.758;4.356;2023-12-07T07:38:14;18.00;;;9.52;;
65096;SDS011;51686;46.758;4.356;2023-12-07T07:41:01;15.40;;;8.70;;
65096;SDS011;51686;46.758;4.356;2023-12-07T07:43:48;15.65;;;8.40;;
65096;SDS011;51686;46.758;4.356;2023-12-07T07:46:35;17.50;;;9.05;;
65096;SDS011;51686;46.758;4.356;2023-12-07T07:49:22;17.20;;;8.45;;
65096;SDS011;51686;46.758;4.356;2023-12-07T07:52:09;17.40;;;9.48;;
65096;SDS011;51686;46.758;4.356;2023-12-07T07:54:56;17.13;;;9.50;;
65096;SDS011;51686;46.758;4.356;2023-12-07T07:57:43;15.60;;;8.70;;
65096;SDS011;51686;46.758;4.356;2023-12-07T08:00:30;16.17;;;8.93;;
65096;SDS011;51686;46.758;4.356;2023-12-07T08:03:19;16.20;;;9.27;;
65096;SDS011;51686;46.758;4.356;2023-12-07T08:06:06;17.38;;;9.43;;
65096;SDS011;51686;46.758;4.356;2023-12-07T08:08:54;16.90;;;9.23;;
65096;SDS011;51686;46.758;4.356;2023-12-07T08:11:40;15.65;;;8.50;;
65096;SDS011;51686;46.758;4.356;2023-12-07T08:14:27;15.27;;;8.60;;
65096;SDS011;51686;46.758;4.356;2023-12-07T08:17:14;15.52;;;8.52;;
65096;SDS011;51686;46.758;4.356;2023-12-07T08:20:01;14.95;;;8.48;;
65096;SDS011;51686;46.758;4.356;2023-12-07T08:22:48;15.45;;;8.63;;
65096;SDS011;51686;46.758;4.356;2023-12-07T08:25:38;15.55;;;8.82;;
65096;SDS011;51686;46.758;4.356;2023-12-07T08:28:25;16.10;;;8.45;;
65096;SDS011;51686;46.758;4.356;2023-12-07T08:31:12;15.43;;;8.25;;
65096;SDS011;51686;46.758;4.356;2023-12-07T08:33:59;14.57;;;8.20;;
65096;SDS011;51686;46.758;4.356;2023-12-07T08:36:47;14.98;;;8.43;;
65096;SDS011;51686;46.758;4.356;2023-12-07T08:39:34;16.67;;;9.00;;
65096;SDS011;51686;46.758;4.356;2023-12-07T08:42:21;16.00;;;8.45;;
65096;SDS011;51686;46.758;4.356;2023-12-07T08:45:08;14.27;;;8.20;;
65096;SDS011;51686;46.758;4.356;2023-12-07T08:47:55;14.73;;;8.65;;
65096;SDS011;51686;46.758;4.356;2023-12-07T08:50:42;15.25;;;8.77;;
65096;SDS011;51686;46.758;4.356;2023-12-07T08:53:29;14.73;;;8.35;;
65096;SDS011;51686;46.758;4.356;2023-12-07T08:56:16;15.02;;;8.57;;
65096;SDS011;51686;46.758;4.356;2023-12-07T08:59:03;14.70;;;7.90;;
65096;SDS011;51686;46.758;4.356;2023-12-07T09:01:50;15.07;;;8.60;;
65096;SDS011;51686;46.758;4.356;2023-12-07T09:04:37;13.98;;;8.15;;
65096;SDS011;51686;46.758;4.356;2023-12-07T09:07:26;13.85;;;7.88;;
65096;SDS011;51686;46.758;4.356;2023-12-07T09:10:13;14.27;;;8.00;;
65096;SDS011;51686;46.758;4.356;2023-12-07T09:13:00;14.80;;;7.95;;
65096;SDS011;51686;46.758;4.356;2023-12-07T09:15:47;14.82;;;8.05;;
65096;SDS011;51686;46.758;4.356;2023-12-07T09:18:34;15.65;;;8.75;;
65096;SDS011;51686;46.758;4.356;2023-12-07T09:21:22;13.20;;;7.95;;
65096;SDS011;51686;46.758;4.356;2023-12-07T09:24:09;13.95;;;7.68;;
65096;SDS011;51686;46.758;4.356;2023-12-07T09:26:55;13.65;;;7.75;;
65096;SDS011;51686;46.758;4.356;2023-12-07T09:29:42;14.35;;;8.23;;
65096;SDS011;51686;46.758;4.356;2023-12-07T09:32:29;15.35;;;8.35;;
65096;SDS011;51686;46.758;4.356;2023-12-07T09:35:22;15.25;;;8.15;;
65096;SDS011;51686;46.758;4.356;2023-12-07T09:38:09;14.32;;;7.93;;
65096;SDS011;51686;46.758;4.356;2023-12-07T09:40:56;15.43;;;8.52;;
65096;SDS011;51686;46.758;4.356;2023-12-07T09:43:43;15.75;;;8.88;;
65096;SDS011;51686;46.758;4.356;2023-12-07T09:46:30;16.73;;;8.77;;
65096;SDS011;51686;46.758;4.356;2023-12-07T09:49:17;14.25;;;7.80;;
65096;SDS011;51686;46.758;4.356;2023-12-07T09:52:04;15.05;;;8.35;;
65096;SDS011;51686;46.758;4.356;2023-12-07T09:57:40;14.73;;;8.38;;
65096;SDS011;51686;46.758;4.356;2023-12-07T10:00:27;14.27;;;7.90;;
65096;SDS011;51686;46.758;4.356;2023-12-07T10:03:21;13.40;;;7.35;;
65096;SDS011;51686;46.758;4.356;2023-12-07T10:06:10;14.50;;;8.25;;
65096;SDS011;51686;46.758;4.356;2023-12-07T10:09:02;13.10;;;7.78;;
65096;SDS011;51686;46.758;4.356;2023-12-07T10:11:49;14.90;;;8.05;;
65096;SDS011;51686;46.758;4.356;2023-12-07T10:14:37;15.30;;;8.52;;
65096;SDS011;51686;46.758;4.356;2023-12-07T10:17:24;14.93;;;8.60;;
65096;SDS011;51686;46.758;4.356;2023-12-07T10:23:02;14.02;;;7.88;;
65096;SDS011;51686;46.758;4.356;2023-12-07T10:25:53;15.13;;;8.18;;
65096;SDS011;51686;46.758;4.356;2023-12-07T10:28:41;15.50;;;8.57;;
65096;SDS011;51686;46.758;4.356;2023-12-07T10:31:28;15.52;;;8.20;;
65096;SDS011;51686;46.758;4.356;2023-12-07T10:34:18;13.82;;;8.20;;
65096;SDS011;51686;46.758;4.356;2023-12-07T10:37:06;14.40;;;8.25;;
65096;SDS011;51686;46.758;4.356;2023-12-07T10:39:53;14.25;;;8.05;;
65096;SDS011;51686;46.758;4.356;2023-12-07T10:42:42;15.07;;;8.52;;
65096;SDS011;51686;46.758;4.356;2023-12-07T10:45:33;14.95;;;8.07;;
65096;SDS011;51686;46.758;4.356;2023-12-07T10:48:21;13.60;;;7.80;;
65096;SDS011;51686;46.758;4.356;2023-12-07T10:51:08;14.95;;;8.18;;
65096;SDS011;51686;46.758;4.356;2023-12-07T10:53:57;16.15;;;9.32;;
65096;SDS011;51686;46.758;4.356;2023-12-07T10:56:45;14.20;;;8.23;;
65096;SDS011;51686;46.758;4.356;2023-12-07T10:59:33;14.27;;;8.38;;
65096;SDS011;51686;46.758;4.356;2023-12-07T11:02:21;13.90;;;8.00;;
65096;SDS011;51686;46.758;4.356;2023-12-07T11:05:09;14.02;;;8.15;;
65096;SDS011;51686;46.758;4.356;2023-12-07T11:07:57;14.73;;;8.15;;
65096;SDS011;51686;46.758;4.356;2023-12-07T11:11:29;13.95;;;7.97;;
65096;SDS011;51686;46.758;4.356;2023-12-07T11:14:16;14.85;;;8.10;;
65096;SDS011;51686;46.758;4.356;2023-12-07T11:17:03;13.68;;;7.63;;
65096;SDS011;51686;46.758;4.356;2023-12-07T11:19:51;14.75;;;8.40;;
65096;SDS011;51686;46.758;4.356;2023-12-07T11:22:40;17.40;;;9.05;;
65096;SDS011;51686;46.758;4.356;2023-12-07T11:25:27;15.40;;;8.32;;
65096;SDS011;51686;46.758;4.356;2023-12-07T11:28:14;14.93;;;8.50;;
65096;SDS011;51686;46.758;4.356;2023-12-07T11:31:02;14.45;;;8.15;;
65096;SDS011;51686;46.758;4.356;2023-12-07T11:33:49;14.35;;;8.23;;
65096;SDS011;51686;46.758;4.356;2023-12-07T11:36:36;14.30;;;7.85;;
65096;SDS011;51686;46.758;4.356;2023-12-07T11:39:23;15.73;;;8.65;;
65096;SDS011;51686;46.758;4.356;2023-12-07T11:42:16;15.13;;;7.90;;
65096;SDS011;51686;46.758;4.356;2023-12-07T11:45:04;14.15;;;8.15;;
65096;SDS011;51686;46.758;4.356;2023-12-07T11:48:10;14.63;;;8.75;;
65096;SDS011;51686;46.758;4.356;2023-12-07T11:51:04;15.68;;;8.30;;
65096;SDS011;51686;46.758;4.356;2023-12-07T11:53:52;15.00;;;8.30;;
65096;SDS011;51686;46.758;4.356;2023-12-07T11:56:39;14.48;;;8.55;;
65096;SDS011;51686;46.758;4.356;2023-12-07T11:59:26;15.40;;;8.40;;
65096;SDS011;51686;46.758;4.356;2023-12-07T12:02:19;16.65;;;9.20;;
65096;SDS011;51686;46.758;4.356;2023-12-07T12:05:06;16.67;;;9.18;;
65096;SDS011;51686;46.758;4.356;2023-12-07T12:07:56;16.42;;;9.70;;
65096;SDS011;51686;46.758;4.356;2023-12-07T12:10:43;19.55;;;10.13;;
65096;SDS011;51686;46.758;4.356;2023-12-07T12:13:33;16.50;;;9.20;;
65096;SDS011;51686;46.758;4.356;2023-12-07T12:16:21;17.58;;;9.88;;
65096;SDS011;51686;46.758;4.356;2023-12-07T12:19:08;18.85;;;9.95;;
65096;SDS011;51686;46.758;4.356;2023-12-07T12:22:02;17.05;;;10.38;;
65096;SDS011;51686;46.758;4.356;2023-12-07T12:24:53;17.70;;;10.32;;
65096;SDS011;51686;46.758;4.356;2023-12-07T12:27:40;17.67;;;10.10;;
65096;SDS011;51686;46.758;4.356;2023-12-07T12:30:27;19.02;;;9.77;;
65096;SDS011;51686;46.758;4.356;2023-12-07T12:33:15;16.92;;;10.32;;
65096;SDS011;51686;46.758;4.356;2023-12-07T12:36:02;18.15;;;10.27;;
65096;SDS011;51686;46.758;4.356;2023-12-07T12:38:50;18.25;;;10.88;;
65096;SDS011;51686;46.758;4.356;2023-12-07T12:41:37;17.70;;;10.43;;
65096;SDS011;51686;46.758;4.356;2023-12-07T12:44:26;17.77;;;10.17;;
65096;SDS011;51686;46.758;4.356;2023-12-07T12:47:21;18.48;;;10.38;;
65096;SDS011;51686;46.758;4.356;2023-12-07T12:50:09;18.50;;;11.00;;
65096;SDS011;51686;46.758;4.356;2023-12-07T12:53:01;18.75;;;10.82;;
65096;SDS011;51686;46.758;4.356;2023-12-07T12:55:52;19.95;;;10.48;;
65096;SDS011;51686;46.758;4.356;2023-12-07T12:58:39;17.42;;;10.27;;
65096;SDS011;51686;46.758;4.356;2023-12-07T13:01:26;18.08;;;10.50;;
65096;SDS011;51686;46.758;4.356;2023-12-07T13:04:13;18.45;;;10.95;;
65096;SDS011;51686;46.758;4.356;2023-12-07T13:07:00;18.33;;;10.93;;
65096;SDS011;51686;46.758;4.356;2023-12-07T13:09:47;18.52;;;10.68;;
65096;SDS011;51686;46.758;4.356;2023-12-07T13:12:34;20.27;;;11.23;;
65096;SDS011;51686;46.758;4.356;2023-12-07T13:15:21;17.67;;;10.63;;
65096;SDS011;51686;46.758;4.356;2023-12-07T13:18:08;17.50;;;10.52;;
65096;SDS011;51686;46.758;4.356;2023-12-07T13:20:56;18.83;;;11.27;;
65096;SDS011;51686;46.758;4.356;2023-12-07T13:23:43;18.98;;;11.32;;
65096;SDS011;51686;46.758;4.356;2023-12-07T13:26:33;18.70;;;9.95;;
65096;SDS011;51686;46.758;4.356;2023-12-07T13:29:21;18.52;;;10.40;;
65096;SDS011;51686;46.758;4.356;2023-12-07T13:32:21;18.67;;;10.63;;
65096;SDS011;51686;46.758;4.356;2023-12-07T13:35:08;16.88;;;10.13;;
65096;SDS011;51686;46.758;4.356;2023-12-07T13:37:55;19.90;;;10.93;;
65096;SDS011;51686;46.758;4.356;2023-12-07T13:40:42;18.88;;;10.43;;
65096;SDS011;51686;46.758;4.356;2023-12-07T13:43:29;18.75;;;10.50;;
65096;SDS011;51686;46.758;4.356;2023-12-07T13:49:05;19.50;;;9.73;;
65096;SDS011;51686;46.758;4.356;2023-12-07T13:51:57;17.58;;;10.20;;
65096;SDS011;51686;46.758;4.356;2023-12-07T13:54:52;18.85;;;10.77;;
65096;SDS011;51686;46.758;4.356;2023-12-07T13:57:40;19.02;;;10.95;;
65096;SDS011;51686;46.758;4.356;2023-12-07T14:00:27;19.50;;;11.70;;
65096;SDS011;51686;46.758;4.356;2023-12-07T14:03:14;19.10;;;11.20;;
65096;SDS011;51686;46.758;4.356;2023-12-07T14:06:01;18.65;;;10.43;;
65096;SDS011;51686;46.758;4.356;2023-12-07T14:09:00;18.80;;;10.55;;
65096;SDS011;51686;46.758;4.356;2023-12-07T14:11:49;17.77;;;10.27;;
65096;SDS011;51686;46.758;4.356;2023-12-07T14:14:36;20.13;;;11.88;;
65096;SDS011;51686;46.758;4.356;2023-12-07T14:17:23;17.50;;;10.07;;
65096;SDS011;51686;46.758;4.356;2023-12-07T14:20:20;18.10;;;10.57;;
65096;SDS011;51686;46.758;4.356;2023-12-07T14:23:30;19.58;;;11.32;;
65096;SDS011;51686;46.758;4.356;2023-12-07T14:26:18;20.23;;;11.10;;
65096;SDS011;51686;46.758;4.356;2023-12-07T14:29:05;18.67;;;10.75;;
65096;SDS011;51686;46.758;4.356;2023-12-07T14:31:52;20.80;;;12.65;;
65096;SDS011;51686;46.758;4.356;2023-12-07T14:34:39;19.35;;;12.00;;
65096;SDS011;51686;46.758;4.356;2023-12-07T14:37:27;20.05;;;12.02;;
65096;SDS011;51686;46.758;4.356;2023-12-07T14:40:14;18.23;;;10.93;;
65096;SDS011;51686;46.758;4.356;2023-12-07T14:43:05;19.92;;;11.07;;
65096;SDS011;51686;46.758;4.356;2023-12-07T14:45:52;17.70;;;10.55;;
65096;SDS011;51686;46.758;4.356;2023-12-07T14:48:39;17.60;;;10.45;;
65096;SDS011;51686;46.758;4.356;2023-12-07T14:51:26;18.35;;;10.23;;
65096;SDS011;51686;46.758;4.356;2023-12-07T14:54:13;18.90;;;11.43;;
65096;SDS011;51686;46.758;4.356;2023-12-07T14:57:11;18.85;;;10.55;;
65096;SDS011;51686;46.758;4.356;2023-12-07T14:59:58;17.10;;;9.57;;
65096;SDS011;51686;46.758;4.356;2023-12-07T15:02:46;16.48;;;9.65;;
65096;SDS011;51686;46.758;4.356;2023-12-07T15:05:33;16.60;;;9.70;;
65096;SDS011;51686;46.758;4.356;2023-12-07T15:08:20;17.38;;;10.07;;
65096;SDS011;51686;46.758;4.356;2023-12-07T15:11:07;17.70;;;9.85;;
65096;SDS011;51686;46.758;4.356;2023-12-07T15:13:54;17.52;;;10.23;;
65096;SDS011;51686;46.758;4.356;2023-12-07T15:16:41;17.40;;;9.80;;
65096;SDS011;51686;46.758;4.356;2023-12-07T15:19:28;18.42;;;9.90;;
65096;SDS011;51686;46.758;4.356;2023-12-07T15:22:15;18.00;;;10.77;;
65096;SDS011;51686;46.758;4.356;2023-12-07T15:25:02;16.45;;;9.88;;
65096;SDS011;51686;46.758;4.356;2023-12-07T15:30:41;16.48;;;9.18;;
65096;SDS011;51686;46.758;4.356;2023-12-07T15:33:28;15.45;;;9.23;;
65096;SDS011;51686;46.758;4.356;2023-12-07T15:36:15;16.40;;;9.20;;
65096;SDS011;51686;46.758;4.356;2023-12-07T15:39:01;17.70;;;9.85;;
65096;SDS011;51686;46.758;4.356;2023-12-07T15:41:49;18.50;;;10.02;;
65096;SDS011;51686;46.758;4.356;2023-12-07T15:44:36;19.02;;;10.13;;
65096;SDS011;51686;46.758;4.356;2023-12-07T15:47:23;15.25;;;9.15;;
65096;SDS011;51686;46.758;4.356;2023-12-07T15:50:10;17.95;;;9.98;;
65096;SDS011;51686;46.758;4.356;2023-12-07T15:52:58;15.70;;;9.50;;
65096;SDS011;51686;46.758;4.356;2023-12-07T15:55:45;15.27;;;9.70;;
65096;SDS011;51686;46.758;4.356;2023-12-07T15:58:32;17.10;;;9.52;;
65096;SDS011;51686;46.758;4.356;2023-12-07T16:01:19;17.05;;;9.52;;
65096;SDS011;51686;46.758;4.356;2023-12-07T16:04:06;15.52;;;8.65;;
65096;SDS011;51686;46.758;4.356;2023-12-07T16:06:53;16.27;;;8.90;;
65096;SDS011;51686;46.758;4.356;2023-12-07T16:09:40;16.80;;;9.65;;
65096;SDS011;51686;46.758;4.356;2023-12-07T16:12:30;17.05;;;9.65;;
65096;SDS011;51686;46.758;4.356;2023-12-07T16:15:17;16.45;;;9.13;;
65096;SDS011;51686;46.758;4.356;2023-12-07T16:18:04;16.67;;;9.45;;
65096;SDS011;51686;46.758;4.356;2023-12-07T16:20:51;17.63;;;9.85;;
65096;SDS011;51686;46.758;4.356;2023-12-07T16:23:38;16.90;;;9.63;;
65096;SDS011;51686;46.758;4.356;2023-12-07T16:26:25;19.33;;;10.15;;
65096;SDS011;51686;46.758;4.356;2023-12-07T16:29:12;17.05;;;9.68;;
65096;SDS011;51686;46.758;4.356;2023-12-07T16:31:59;16.88;;;10.02;;
65096;SDS011;51686;46.758;4.356;2023-12-07T16:34:47;16.13;;;9.98;;
65096;SDS011;51686;46.758;4.356;2023-12-07T16:37:34;18.52;;;10.25;;
65096;SDS011;51686;46.758;4.356;2023-12-07T16:40:21;17.33;;;10.55;;
65096;SDS011;51686;46.758;4.356;2023-12-07T16:43:07;18.67;;;10.77;;
65096;SDS011;51686;46.758;4.356;2023-12-07T16:45:54;17.13;;;9.75;;
65096;SDS011;51686;46.758;4.356;2023-12-07T16:48:41;17.45;;;10.27;;